sensor_id;sensor_type;location;lat;lon;timestamp;P1;durP1;ratioP1;P2;durP2;ratioP2
36653;SDS011;22650;49.350;20.898;2022-11-15T00:00:47;62.53;;;16.50;;
36653;SDS011;22650;49.350;20.898;2022-11-15T00:03:40;47.45;;;14.00;;
36653;SDS011;22650;49.350;20.898;2022-11-15T00:06:32;43.17;;;13.33;;
36653;SDS011;22650;49.350;20.898;2022-11-15T00:09:23;33.95;;;14.52;;
36653;SDS011;22650;49.350;20.898;2022-11-15T00:12:17;44.70;;;14.57;;
36653;SDS011;22650;49.350;20.898;2022-11-15T00:15:09;36.45;;;13.05;;
36653;SDS011;22650;49.350;20.898;2022-11-15T00:18:01;44.28;;;13.48;;
36653;SDS011;22650;49.350;20.898;2022-11-15T00:20:53;44.65;;;14.40;;
36653;SDS011;22650;49.350;20.898;2022-11-15T00:23:46;47.03;;;13.65;;
36653;SDS011;22650;49.350;20.898;2022-11-15T00:26:38;34.93;;;12.47;;
36653;SDS011;22650;49.350;20.898;2022-11-15T00:29:31;39.37;;;13.53;;
36653;SDS011;22650;49.350;20.898;2022-11-15T00:32:23;33.75;;;11.70;;
36653;SDS011;22650;49.350;20.898;2022-11-15T00:35:15;33.67;;;12.57;;
36653;SDS011;22650;49.350;20.898;2022-11-15T00:38:07;31.38;;;14.13;;
36653;SDS011;22650;49.350;20.898;2022-11-15T00:40:59;35.30;;;12.30;;
36653;SDS011;22650;49.350;20.898;2022-11-15T00:43:58;46.30;;;14.40;;
36653;SDS011;22650;49.350;20.898;2022-11-15T00:46:51;43.55;;;14.32;;
36653;SDS011;22650;49.350;20.898;2022-11-15T00:49:44;42.08;;;16.10;;
36653;SDS011;22650;49.350;20.898;2022-11-15T00:52:36;41.07;;;13.73;;
36653;SDS011;22650;49.350;20.898;2022-11-15T00:55:28;31.85;;;13.90;;
36653;SDS011;22650;49.350;20.898;2022-11-15T00:58:20;37.35;;;14.45;;
36653;SDS011;22650;49.350;20.898;2022-11-15T01:01:13;39.93;;;13.33;;
36653;SDS011;22650;49.350;20.898;2022-11-15T01:04:07;60.63;;;17.77;;
36653;SDS011;22650;49.350;20.898;2022-11-15T01:09:50;56.63;;;14.25;;
36653;SDS011;22650;49.350;20.898;2022-11-15T01:12:42;27.13;;;11.05;;
36653;SDS011;22650;49.350;20.898;2022-11-15T01:15:38;59.58;;;15.00;;
36653;SDS011;22650;49.350;20.898;2022-11-15T01:18:31;37.42;;;12.13;;
36653;SDS011;22650;49.350;20.898;2022-11-15T01:21:24;51.00;;;14.52;;
36653;SDS011;22650;49.350;20.898;2022-11-15T01:24:17;30.38;;;13.38;;
36653;SDS011;22650;49.350;20.898;2022-11-15T01:27:09;57.50;;;12.90;;
36653;SDS011;22650;49.350;20.898;2022-11-15T01:30:01;45.33;;;14.90;;
36653;SDS011;22650;49.350;20.898;2022-11-15T01:32:53;90.55;;;15.88;;
36653;SDS011;22650;49.350;20.898;2022-11-15T01:35:45;29.48;;;12.02;;
36653;SDS011;22650;49.350;20.898;2022-11-15T01:38:39;44.53;;;14.73;;
36653;SDS011;22650;49.350;20.898;2022-11-15T01:41:32;49.38;;;14.30;;
36653;SDS011;22650;49.350;20.898;2022-11-15T01:44:41;67.53;;;14.25;;
36653;SDS011;22650;49.350;20.898;2022-11-15T01:47:35;46.47;;;13.15;;
36653;SDS011;22650;49.350;20.898;2022-11-15T01:50:30;64.15;;;15.02;;
36653;SDS011;22650;49.350;20.898;2022-11-15T01:53:23;53.17;;;14.57;;
36653;SDS011;22650;49.350;20.898;2022-11-15T01:56:19;68.18;;;12.25;;
36653;SDS011;22650;49.350;20.898;2022-11-15T01:59:14;33.60;;;11.15;;
36653;SDS011;22650;49.350;20.898;2022-11-15T02:02:07;33.60;;;12.75;;
36653;SDS011;22650;49.350;20.898;2022-11-15T02:04:59;29.40;;;11.68;;
36653;SDS011;22650;49.350;20.898;2022-11-15T02:07:51;38.05;;;11.60;;
36653;SDS011;22650;49.350;20.898;2022-11-15T02:10:43;36.00;;;12.77;;
36653;SDS011;22650;49.350;20.898;2022-11-15T02:13:37;37.45;;;11.48;;
36653;SDS011;22650;49.350;20.898;2022-11-15T02:16:30;43.38;;;13.05;;
36653;SDS011;22650;49.350;20.898;2022-11-15T02:26:32;48.72;;;13.25;;
36653;SDS011;22650;49.350;20.898;2022-11-15T02:29:51;30.77;;;10.40;;
36653;SDS011;22650;49.350;20.898;2022-11-15T02:32:58;19.08;;;8.95;;
36653;SDS011;22650;49.350;20.898;2022-11-15T02:35:57;26.38;;;9.55;;
36653;SDS011;22650;49.350;20.898;2022-11-15T02:38:52;26.27;;;9.40;;
36653;SDS011;22650;49.350;20.898;2022-11-15T02:41:50;27.05;;;9.75;;
36653;SDS011;22650;49.350;20.898;2022-11-15T02:44:45;36.75;;;13.00;;
36653;SDS011;22650;49.350;20.898;2022-11-15T02:47:37;23.33;;;9.65;;
36653;SDS011;22650;49.350;20.898;2022-11-15T02:50:35;16.88;;;7.78;;
36653;SDS011;22650;49.350;20.898;2022-11-15T02:53:27;19.52;;;8.73;;
36653;SDS011;22650;49.350;20.898;2022-11-15T02:56:20;18.15;;;8.32;;
36653;SDS011;22650;49.350;20.898;2022-11-15T02:59:13;20.90;;;8.23;;
36653;SDS011;22650;49.350;20.898;2022-11-15T03:02:20;19.83;;;8.35;;
36653;SDS011;22650;49.350;20.898;2022-11-15T03:05:24;23.75;;;8.75;;
36653;SDS011;22650;49.350;20.898;2022-11-15T03:08:28;19.70;;;8.95;;
36653;SDS011;22650;49.350;20.898;2022-11-15T03:11:24;24.48;;;7.25;;
36653;SDS011;22650;49.350;20.898;2022-11-15T03:14:18;19.02;;;8.52;;
36653;SDS011;22650;49.350;20.898;2022-11-15T03:17:15;24.27;;;8.68;;
36653;SDS011;22650;49.350;20.898;2022-11-15T03:20:13;20.85;;;8.13;;
36653;SDS011;22650;49.350;20.898;2022-11-15T03:23:09;18.00;;;8.20;;
36653;SDS011;22650;49.350;20.898;2022-11-15T03:26:03;17.20;;;6.90;;
36653;SDS011;22650;49.350;20.898;2022-11-15T03:29:01;23.92;;;7.40;;
36653;SDS011;22650;49.350;20.898;2022-11-15T03:31:56;18.98;;;8.50;;
36653;SDS011;22650;49.350;20.898;2022-11-15T03:34:53;17.25;;;8.43;;
36653;SDS011;22650;49.350;20.898;2022-11-15T03:37:49;14.77;;;5.97;;
36653;SDS011;22650;49.350;20.898;2022-11-15T03:40:47;49.17;;;7.90;;
36653;SDS011;22650;49.350;20.898;2022-11-15T03:43:48;16.50;;;8.50;;
36653;SDS011;22650;49.350;20.898;2022-11-15T03:46:46;47.05;;;7.57;;
36653;SDS011;22650;49.350;20.898;2022-11-15T03:49:44;37.72;;;8.95;;
36653;SDS011;22650;49.350;20.898;2022-11-15T03:52:40;22.80;;;8.10;;
36653;SDS011;22650;49.350;20.898;2022-11-15T03:55:33;22.35;;;8.43;;
36653;SDS011;22650;49.350;20.898;2022-11-15T03:58:25;19.77;;;7.17;;
36653;SDS011;22650;49.350;20.898;2022-11-15T04:01:19;36.63;;;9.23;;
36653;SDS011;22650;49.350;20.898;2022-11-15T04:04:11;31.85;;;9.07;;
36653;SDS011;22650;49.350;20.898;2022-11-15T04:07:03;18.45;;;7.78;;
36653;SDS011;22650;49.350;20.898;2022-11-15T04:09:55;19.77;;;8.07;;
36653;SDS011;22650;49.350;20.898;2022-11-15T04:12:53;22.70;;;7.68;;
36653;SDS011;22650;49.350;20.898;2022-11-15T04:15:45;20.48;;;8.02;;
36653;SDS011;22650;49.350;20.898;2022-11-15T04:18:39;17.80;;;7.27;;
36653;SDS011;22650;49.350;20.898;2022-11-15T04:21:31;18.17;;;7.00;;
36653;SDS011;22650;49.350;20.898;2022-11-15T04:24:40;37.42;;;6.75;;
36653;SDS011;22650;49.350;20.898;2022-11-15T04:27:32;18.92;;;5.65;;
36653;SDS011;22650;49.350;20.898;2022-11-15T04:30:24;10.75;;;5.68;;
36653;SDS011;22650;49.350;20.898;2022-11-15T04:33:16;20.15;;;6.45;;
36653;SDS011;22650;49.350;20.898;2022-11-15T04:36:10;19.67;;;7.45;;
36653;SDS011;22650;49.350;20.898;2022-11-15T04:39:24;17.65;;;6.70;;
36653;SDS011;22650;49.350;20.898;2022-11-15T04:42:16;25.37;;;7.03;;
36653;SDS011;22650;49.350;20.898;2022-11-15T04:45:09;25.13;;;7.53;;
36653;SDS011;22650;49.350;20.898;2022-11-15T04:48:01;37.28;;;6.57;;
36653;SDS011;22650;49.350;20.898;2022-11-15T04:50:53;14.27;;;6.65;;
36653;SDS011;22650;49.350;20.898;2022-11-15T04:53:47;14.27;;;6.20;;
36653;SDS011;22650;49.350;20.898;2022-11-15T04:56:38;14.23;;;6.65;;
36653;SDS011;22650;49.350;20.898;2022-11-15T04:59:31;20.27;;;7.72;;
36653;SDS011;22650;49.350;20.898;2022-11-15T05:02:23;12.23;;;6.07;;
36653;SDS011;22650;49.350;20.898;2022-11-15T05:05:35;26.83;;;6.55;;
36653;SDS011;22650;49.350;20.898;2022-11-15T05:08:25;20.35;;;6.72;;
36653;SDS011;22650;49.350;20.898;2022-11-15T05:11:19;37.08;;;6.35;;
36653;SDS011;22650;49.350;20.898;2022-11-15T05:14:11;41.95;;;7.22;;
36653;SDS011;22650;49.350;20.898;2022-11-15T05:17:03;24.42;;;6.78;;
36653;SDS011;22650;49.350;20.898;2022-11-15T05:19:55;18.47;;;5.67;;
36653;SDS011;22650;49.350;20.898;2022-11-15T05:22:47;41.85;;;8.65;;
36653;SDS011;22650;49.350;20.898;2022-11-15T05:25:39;35.80;;;6.40;;
36653;SDS011;22650;49.350;20.898;2022-11-15T05:28:32;63.50;;;7.88;;
36653;SDS011;22650;49.350;20.898;2022-11-15T05:31:24;84.68;;;10.63;;
36653;SDS011;22650;49.350;20.898;2022-11-15T05:37:11;41.75;;;7.57;;
36653;SDS011;22650;49.350;20.898;2022-11-15T05:40:04;76.35;;;9.38;;
36653;SDS011;22650;49.350;20.898;2022-11-15T05:42:57;72.80;;;10.05;;
36653;SDS011;22650;49.350;20.898;2022-11-15T05:45:53;72.55;;;9.65;;
36653;SDS011;22650;49.350;20.898;2022-11-15T05:48:46;84.63;;;10.73;;
36653;SDS011;22650;49.350;20.898;2022-11-15T05:51:41;54.00;;;8.52;;
36653;SDS011;22650;49.350;20.898;2022-11-15T05:54:34;44.90;;;9.02;;
36653;SDS011;22650;49.350;20.898;2022-11-15T05:57:28;68.28;;;9.77;;
36653;SDS011;22650;49.350;20.898;2022-11-15T06:00:20;37.67;;;8.63;;
36653;SDS011;22650;49.350;20.898;2022-11-15T06:03:13;53.30;;;9.55;;
36653;SDS011;22650;49.350;20.898;2022-11-15T06:06:06;119.18;;;10.25;;
36653;SDS011;22650;49.350;20.898;2022-11-15T06:09:05;35.92;;;7.15;;
36653;SDS011;22650;49.350;20.898;2022-11-15T06:11:57;71.20;;;7.88;;
36653;SDS011;22650;49.350;20.898;2022-11-15T06:14:49;49.50;;;8.07;;
36653;SDS011;22650;49.350;20.898;2022-11-15T06:17:40;69.23;;;8.90;;
36653;SDS011;22650;49.350;20.898;2022-11-15T06:20:34;25.40;;;6.50;;
36653;SDS011;22650;49.350;20.898;2022-11-15T06:23:25;50.28;;;7.55;;
36653;SDS011;22650;49.350;20.898;2022-11-15T06:26:18;29.23;;;6.57;;
36653;SDS011;22650;49.350;20.898;2022-11-15T06:29:10;62.17;;;9.00;;
36653;SDS011;22650;49.350;20.898;2022-11-15T06:32:02;87.33;;;9.80;;
36653;SDS011;22650;49.350;20.898;2022-11-15T06:34:54;105.65;;;10.00;;
36653;SDS011;22650;49.350;20.898;2022-11-15T06:37:47;23.50;;;6.78;;
36653;SDS011;22650;49.350;20.898;2022-11-15T06:40:39;84.45;;;8.18;;
36653;SDS011;22650;49.350;20.898;2022-11-15T06:43:31;20.95;;;5.90;;
36653;SDS011;22650;49.350;20.898;2022-11-15T06:46:24;38.00;;;7.85;;
36653;SDS011;22650;49.350;20.898;2022-11-15T06:49:15;60.25;;;8.18;;
36653;SDS011;22650;49.350;20.898;2022-11-15T06:52:07;130.27;;;10.25;;
36653;SDS011;22650;49.350;20.898;2022-11-15T06:55:00;59.42;;;7.13;;
36653;SDS011;22650;49.350;20.898;2022-11-15T06:57:52;52.35;;;6.28;;
36653;SDS011;22650;49.350;20.898;2022-11-15T07:00:44;51.55;;;7.72;;
36653;SDS011;22650;49.350;20.898;2022-11-15T07:03:37;25.90;;;6.53;;
36653;SDS011;22650;49.350;20.898;2022-11-15T07:06:29;58.53;;;8.45;;
36653;SDS011;22650;49.350;20.898;2022-11-15T07:09:22;37.15;;;8.23;;
36653;SDS011;22650;49.350;20.898;2022-11-15T07:12:15;50.17;;;6.97;;
36653;SDS011;22650;49.350;20.898;2022-11-15T07:15:08;35.85;;;5.78;;
36653;SDS011;22650;49.350;20.898;2022-11-15T07:20:53;24.27;;;6.15;;
36653;SDS011;22650;49.350;20.898;2022-11-15T07:23:45;25.23;;;6.47;;
36653;SDS011;22650;49.350;20.898;2022-11-15T07:26:37;47.90;;;6.57;;
36653;SDS011;22650;49.350;20.898;2022-11-15T07:29:30;23.25;;;5.95;;
36653;SDS011;22650;49.350;20.898;2022-11-15T07:32:22;53.75;;;6.70;;
36653;SDS011;22650;49.350;20.898;2022-11-15T07:35:14;23.52;;;7.15;;
36653;SDS011;22650;49.350;20.898;2022-11-15T07:38:06;35.58;;;6.97;;
36653;SDS011;22650;49.350;20.898;2022-11-15T07:40:58;32.45;;;5.55;;
36653;SDS011;22650;49.350;20.898;2022-11-15T07:43:51;27.35;;;6.25;;
36653;SDS011;22650;49.350;20.898;2022-11-15T07:46:44;23.83;;;5.17;;
36653;SDS011;22650;49.350;20.898;2022-11-15T07:52:28;11.05;;;5.28;;
36653;SDS011;22650;49.350;20.898;2022-11-15T07:55:20;7.20;;;4.03;;
36653;SDS011;22650;49.350;20.898;2022-11-15T07:58:12;8.45;;;4.18;;
36653;SDS011;22650;49.350;20.898;2022-11-15T08:01:04;10.05;;;5.00;;
36653;SDS011;22650;49.350;20.898;2022-11-15T08:06:50;11.70;;;5.13;;
36653;SDS011;22650;49.350;20.898;2022-11-15T08:09:42;13.25;;;5.88;;
36653;SDS011;22650;49.350;20.898;2022-11-15T08:12:34;35.90;;;6.90;;
36653;SDS011;22650;49.350;20.898;2022-11-15T08:15:25;25.15;;;5.57;;
36653;SDS011;22650;49.350;20.898;2022-11-15T08:18:18;35.35;;;7.75;;
36653;SDS011;22650;49.350;20.898;2022-11-15T08:21:11;15.70;;;4.87;;
36653;SDS011;22650;49.350;20.898;2022-11-15T08:24:08;7.68;;;4.30;;
36653;SDS011;22650;49.350;20.898;2022-11-15T08:27:01;9.80;;;4.35;;
36653;SDS011;22650;49.350;20.898;2022-11-15T08:29:55;8.18;;;4.47;;
36653;SDS011;22650;49.350;20.898;2022-11-15T08:32:51;17.42;;;5.40;;
36653;SDS011;22650;49.350;20.898;2022-11-15T08:35:43;11.98;;;4.43;;
36653;SDS011;22650;49.350;20.898;2022-11-15T08:38:37;11.88;;;5.18;;
36653;SDS011;22650;49.350;20.898;2022-11-15T08:41:30;13.40;;;5.07;;
36653;SDS011;22650;49.350;20.898;2022-11-15T08:44:25;15.48;;;5.63;;
36653;SDS011;22650;49.350;20.898;2022-11-15T08:47:17;13.30;;;6.13;;
36653;SDS011;22650;49.350;20.898;2022-11-15T08:50:08;17.45;;;8.02;;
36653;SDS011;22650;49.350;20.898;2022-11-15T08:53:04;10.00;;;4.85;;
36653;SDS011;22650;49.350;20.898;2022-11-15T08:55:58;19.77;;;7.60;;
36653;SDS011;22650;49.350;20.898;2022-11-15T08:58:49;16.70;;;6.28;;
36653;SDS011;22650;49.350;20.898;2022-11-15T09:01:41;22.87;;;8.70;;
36653;SDS011;22650;49.350;20.898;2022-11-15T09:04:34;24.03;;;7.67;;
36653;SDS011;22650;49.350;20.898;2022-11-15T09:07:26;19.43;;;7.17;;
36653;SDS011;22650;49.350;20.898;2022-11-15T09:10:20;15.02;;;6.85;;
36653;SDS011;22650;49.350;20.898;2022-11-15T09:13:14;12.70;;;6.60;;
36653;SDS011;22650;49.350;20.898;2022-11-15T09:16:06;26.38;;;6.50;;
36653;SDS011;22650;49.350;20.898;2022-11-15T09:18:58;10.98;;;5.55;;
36653;SDS011;22650;49.350;20.898;2022-11-15T09:21:50;11.00;;;5.40;;
36653;SDS011;22650;49.350;20.898;2022-11-15T09:24:42;12.32;;;5.78;;
36653;SDS011;22650;49.350;20.898;2022-11-15T09:27:34;12.15;;;5.63;;
36653;SDS011;22650;49.350;20.898;2022-11-15T09:30:27;18.65;;;7.93;;
36653;SDS011;22650;49.350;20.898;2022-11-15T09:36:11;14.27;;;7.57;;
36653;SDS011;22650;49.350;20.898;2022-11-15T09:39:03;12.77;;;6.40;;
36653;SDS011;22650;49.350;20.898;2022-11-15T09:42:04;16.80;;;8.18;;
36653;SDS011;22650;49.350;20.898;2022-11-15T09:45:15;20.80;;;11.48;;
36653;SDS011;22650;49.350;20.898;2022-11-15T09:48:17;14.13;;;8.23;;
36653;SDS011;22650;49.350;20.898;2022-11-15T09:51:34;14.43;;;7.25;;
36653;SDS011;22650;49.350;20.898;2022-11-15T09:54:23;16.60;;;8.35;;
36653;SDS011;22650;49.350;20.898;2022-11-15T09:57:21;12.82;;;7.35;;
36653;SDS011;22650;49.350;20.898;2022-11-15T10:00:09;14.18;;;7.88;;
36653;SDS011;22650;49.350;20.898;2022-11-15T10:03:09;11.48;;;5.88;;
36653;SDS011;22650;49.350;20.898;2022-11-15T10:05:46;14.88;;;6.43;;
36653;SDS011;22650;49.350;20.898;2022-11-15T10:08:31;11.48;;;6.00;;
36653;SDS011;22650;49.350;20.898;2022-11-15T10:11:20;12.43;;;6.72;;
36653;SDS011;22650;49.350;20.898;2022-11-15T10:14:13;12.20;;;6.70;;
36653;SDS011;22650;49.350;20.898;2022-11-15T10:19:57;10.18;;;5.90;;
36653;SDS011;22650;49.350;20.898;2022-11-15T10:22:40;10.30;;;5.40;;
36653;SDS011;22650;49.350;20.898;2022-11-15T10:25:19;10.57;;;5.65;;
36653;SDS011;22650;49.350;20.898;2022-11-15T10:27:56;7.75;;;5.25;;
36653;SDS011;22650;49.350;20.898;2022-11-15T10:30:32;8.23;;;5.32;;
36653;SDS011;22650;49.350;20.898;2022-11-15T10:33:18;9.32;;;6.32;;
36653;SDS011;22650;49.350;20.898;2022-11-15T10:36:14;12.48;;;6.95;;
36653;SDS011;22650;49.350;20.898;2022-11-15T10:38:54;11.68;;;6.38;;
36653;SDS011;22650;49.350;20.898;2022-11-15T10:41:30;9.68;;;6.10;;
36653;SDS011;22650;49.350;20.898;2022-11-15T10:44:20;14.57;;;6.05;;
36653;SDS011;22650;49.350;20.898;2022-11-15T10:47:06;11.43;;;6.40;;
36653;SDS011;22650;49.350;20.898;2022-11-15T10:50:25;12.07;;;7.15;;
36653;SDS011;22650;49.350;20.898;2022-11-15T10:53:00;17.20;;;7.53;;
36653;SDS011;22650;49.350;20.898;2022-11-15T10:55:36;12.57;;;5.88;;
36653;SDS011;22650;49.350;20.898;2022-11-15T10:58:19;14.85;;;6.70;;
36653;SDS011;22650;49.350;20.898;2022-11-15T11:00:55;10.55;;;6.32;;
36653;SDS011;22650;49.350;20.898;2022-11-15T11:03:41;11.38;;;6.80;;
36653;SDS011;22650;49.350;20.898;2022-11-15T11:06:16;10.88;;;7.15;;
36653;SDS011;22650;49.350;20.898;2022-11-15T11:08:54;11.43;;;6.78;;
36653;SDS011;22650;49.350;20.898;2022-11-15T11:11:43;11.80;;;6.93;;
36653;SDS011;22650;49.350;20.898;2022-11-15T11:14:19;11.85;;;6.63;;
36653;SDS011;22650;49.350;20.898;2022-11-15T11:16:55;11.45;;;6.45;;
36653;SDS011;22650;49.350;20.898;2022-11-15T11:19:37;11.80;;;6.85;;
36653;SDS011;22650;49.350;20.898;2022-11-15T11:22:23;8.70;;;5.40;;
36653;SDS011;22650;49.350;20.898;2022-11-15T11:25:08;10.80;;;5.77;;
36653;SDS011;22650;49.350;20.898;2022-11-15T11:27:56;6.88;;;4.47;;
36653;SDS011;22650;49.350;20.898;2022-11-15T11:30:41;10.25;;;5.30;;
36653;SDS011;22650;49.350;20.898;2022-11-15T11:33:24;8.23;;;5.30;;
36653;SDS011;22650;49.350;20.898;2022-11-15T11:36:07;8.77;;;5.43;;
36653;SDS011;22650;49.350;20.898;2022-11-15T11:38:53;14.23;;;7.03;;
36653;SDS011;22650;49.350;20.898;2022-11-15T11:41:42;11.68;;;5.32;;
36653;SDS011;22650;49.350;20.898;2022-11-15T11:44:28;10.88;;;6.47;;
36653;SDS011;22650;49.350;20.898;2022-11-15T11:47:07;9.23;;;5.03;;
36653;SDS011;22650;49.350;20.898;2022-11-15T11:49:44;7.50;;;4.95;;
36653;SDS011;22650;49.350;20.898;2022-11-15T11:52:23;13.52;;;7.50;;
36653;SDS011;22650;49.350;20.898;2022-11-15T11:55:02;19.48;;;7.75;;
36653;SDS011;22650;49.350;20.898;2022-11-15T11:57:46;13.57;;;7.97;;
36653;SDS011;22650;49.350;20.898;2022-11-15T12:00:26;12.13;;;7.53;;
36653;SDS011;22650;49.350;20.898;2022-11-15T12:03:05;14.90;;;6.82;;
36653;SDS011;22650;49.350;20.898;2022-11-15T12:05:44;14.35;;;7.53;;
36653;SDS011;22650;49.350;20.898;2022-11-15T12:08:29;16.17;;;7.82;;
36653;SDS011;22650;49.350;20.898;2022-11-15T12:11:09;17.73;;;8.85;;
36653;SDS011;22650;49.350;20.898;2022-11-15T12:13:48;8.30;;;5.82;;
36653;SDS011;22650;49.350;20.898;2022-11-15T12:16:28;14.13;;;6.13;;
36653;SDS011;22650;49.350;20.898;2022-11-15T12:19:03;16.55;;;8.73;;
36653;SDS011;22650;49.350;20.898;2022-11-15T12:21:39;12.88;;;6.53;;
36653;SDS011;22650;49.350;20.898;2022-11-15T12:24:18;9.13;;;4.75;;
36653;SDS011;22650;49.350;20.898;2022-11-15T12:26:56;7.97;;;4.65;;
36653;SDS011;22650;49.350;20.898;2022-11-15T12:29:35;8.25;;;5.10;;
36653;SDS011;22650;49.350;20.898;2022-11-15T12:32:16;9.95;;;6.28;;
36653;SDS011;22650;49.350;20.898;2022-11-15T12:34:57;11.30;;;6.35;;
36653;SDS011;22650;49.350;20.898;2022-11-15T12:43:39;10.13;;;6.50;;
36653;SDS011;22650;49.350;20.898;2022-11-15T12:46:19;18.52;;;7.65;;
36653;SDS011;22650;49.350;20.898;2022-11-15T12:48:56;10.25;;;6.80;;
36653;SDS011;22650;49.350;20.898;2022-11-15T12:54:54;11.15;;;6.55;;
36653;SDS011;22650;49.350;20.898;2022-11-15T12:57:34;11.45;;;7.05;;
36653;SDS011;22650;49.350;20.898;2022-11-15T13:03:18;13.57;;;7.75;;
36653;SDS011;22650;49.350;20.898;2022-11-15T13:06:02;14.68;;;7.88;;
36653;SDS011;22650;49.350;20.898;2022-11-15T13:08:45;14.02;;;7.93;;
36653;SDS011;22650;49.350;20.898;2022-11-15T13:17:28;12.38;;;7.50;;
36653;SDS011;22650;49.350;20.898;2022-11-15T13:20:19;14.05;;;7.63;;
36653;SDS011;22650;49.350;20.898;2022-11-15T13:23:11;17.95;;;9.48;;
36653;SDS011;22650;49.350;20.898;2022-11-15T13:26:06;16.08;;;9.18;;
36653;SDS011;22650;49.350;20.898;2022-11-15T13:28:44;25.23;;;14.60;;
36653;SDS011;22650;49.350;20.898;2022-11-15T13:31:24;26.20;;;13.82;;
36653;SDS011;22650;49.350;20.898;2022-11-15T13:34:02;18.00;;;9.38;;
36653;SDS011;22650;49.350;20.898;2022-11-15T13:37:09;15.68;;;7.72;;
36653;SDS011;22650;49.350;20.898;2022-11-15T13:40:22;15.98;;;8.45;;
36653;SDS011;22650;49.350;20.898;2022-11-15T13:42:58;20.42;;;8.50;;
36653;SDS011;22650;49.350;20.898;2022-11-15T13:45:32;13.38;;;7.60;;
36653;SDS011;22650;49.350;20.898;2022-11-15T13:48:05;13.52;;;5.95;;
36653;SDS011;22650;49.350;20.898;2022-11-15T13:50:41;19.67;;;7.93;;
36653;SDS011;22650;49.350;20.898;2022-11-15T13:53:14;28.65;;;11.88;;
36653;SDS011;22650;49.350;20.898;2022-11-15T13:55:49;19.63;;;10.75;;
36653;SDS011;22650;49.350;20.898;2022-11-15T13:58:24;27.40;;;10.10;;
36653;SDS011;22650;49.350;20.898;2022-11-15T14:00:58;23.30;;;11.00;;
36653;SDS011;22650;49.350;20.898;2022-11-15T14:03:34;14.38;;;7.68;;
36653;SDS011;22650;49.350;20.898;2022-11-15T14:06:14;10.90;;;5.68;;
36653;SDS011;22650;49.350;20.898;2022-11-15T14:09:00;9.82;;;5.55;;
36653;SDS011;22650;49.350;20.898;2022-11-15T14:11:51;9.20;;;5.18;;
36653;SDS011;22650;49.350;20.898;2022-11-15T14:14:26;10.20;;;6.15;;
36653;SDS011;22650;49.350;20.898;2022-11-15T14:17:00;10.93;;;5.95;;
36653;SDS011;22650;49.350;20.898;2022-11-15T14:19:37;42.05;;;20.00;;
36653;SDS011;22650;49.350;20.898;2022-11-15T14:22:17;55.80;;;22.40;;
36653;SDS011;22650;49.350;20.898;2022-11-15T14:31:07;20.75;;;9.23;;
36653;SDS011;22650;49.350;20.898;2022-11-15T14:33:44;18.60;;;9.13;;
36653;SDS011;22650;49.350;20.898;2022-11-15T14:36:18;23.73;;;10.75;;
36653;SDS011;22650;49.350;20.898;2022-11-15T14:38:53;15.63;;;8.05;;
36653;SDS011;22650;49.350;20.898;2022-11-15T14:41:26;16.48;;;8.02;;
36653;SDS011;22650;49.350;20.898;2022-11-15T14:44:05;17.33;;;7.95;;
36653;SDS011;22650;49.350;20.898;2022-11-15T14:46:39;18.38;;;8.25;;
36653;SDS011;22650;49.350;20.898;2022-11-15T14:49:12;16.75;;;9.07;;
36653;SDS011;22650;49.350;20.898;2022-11-15T14:51:46;17.67;;;8.57;;
36653;SDS011;22650;49.350;20.898;2022-11-15T14:54:20;16.50;;;8.82;;
36653;SDS011;22650;49.350;20.898;2022-11-15T14:56:53;18.08;;;8.93;;
36653;SDS011;22650;49.350;20.898;2022-11-15T14:59:27;22.25;;;10.25;;
36653;SDS011;22650;49.350;20.898;2022-11-15T15:02:01;24.52;;;12.00;;
36653;SDS011;22650;49.350;20.898;2022-11-15T15:04:34;22.08;;;10.88;;
36653;SDS011;22650;49.350;20.898;2022-11-15T15:07:09;19.85;;;10.75;;
36653;SDS011;22650;49.350;20.898;2022-11-15T15:09:43;23.08;;;10.48;;
36653;SDS011;22650;49.350;20.898;2022-11-15T15:12:18;26.63;;;12.80;;
36653;SDS011;22650;49.350;20.898;2022-11-15T15:14:54;24.35;;;10.70;;
36653;SDS011;22650;49.350;20.898;2022-11-15T15:17:27;21.50;;;11.10;;
36653;SDS011;22650;49.350;20.898;2022-11-15T15:20:01;21.10;;;10.38;;
36653;SDS011;22650;49.350;20.898;2022-11-15T15:22:34;22.92;;;10.85;;
36653;SDS011;22650;49.350;20.898;2022-11-15T15:25:14;18.40;;;9.13;;
36653;SDS011;22650;49.350;20.898;2022-11-15T15:27:53;17.05;;;8.48;;
36653;SDS011;22650;49.350;20.898;2022-11-15T15:30:30;18.15;;;8.88;;
36653;SDS011;22650;49.350;20.898;2022-11-15T15:33:03;40.80;;;17.00;;
36653;SDS011;22650;49.350;20.898;2022-11-15T15:35:36;104.72;;;43.05;;
36653;SDS011;22650;49.350;20.898;2022-11-15T15:38:10;50.53;;;25.77;;
36653;SDS011;22650;49.350;20.898;2022-11-15T15:40:44;35.85;;;17.10;;
36653;SDS011;22650;49.350;20.898;2022-11-15T15:43:21;70.05;;;25.10;;
36653;SDS011;22650;49.350;20.898;2022-11-15T15:45:55;41.42;;;19.00;;
36653;SDS011;22650;49.350;20.898;2022-11-15T15:48:29;31.58;;;13.88;;
36653;SDS011;22650;49.350;20.898;2022-11-15T15:51:03;27.58;;;13.32;;
36653;SDS011;22650;49.350;20.898;2022-11-15T15:53:49;38.10;;;17.63;;
36653;SDS011;22650;49.350;20.898;2022-11-15T15:56:28;44.10;;;18.48;;
36653;SDS011;22650;49.350;20.898;2022-11-15T15:59:02;47.53;;;18.70;;
36653;SDS011;22650;49.350;20.898;2022-11-15T16:01:37;95.20;;;19.42;;
36653;SDS011;22650;49.350;20.898;2022-11-15T16:04:10;41.83;;;18.02;;
36653;SDS011;22650;49.350;20.898;2022-11-15T16:06:43;33.17;;;15.30;;
36653;SDS011;22650;49.350;20.898;2022-11-15T16:09:17;31.02;;;15.10;;
36653;SDS011;22650;49.350;20.898;2022-11-15T16:12:12;21.95;;;10.68;;
36653;SDS011;22650;49.350;20.898;2022-11-15T16:14:47;22.35;;;10.70;;
36653;SDS011;22650;49.350;20.898;2022-11-15T16:17:22;25.25;;;11.07;;
36653;SDS011;22650;49.350;20.898;2022-11-15T16:20:04;20.13;;;10.27;;
36653;SDS011;22650;49.350;20.898;2022-11-15T16:22:38;25.08;;;11.18;;
36653;SDS011;22650;49.350;20.898;2022-11-15T16:25:12;21.55;;;11.35;;
36653;SDS011;22650;49.350;20.898;2022-11-15T16:27:46;22.00;;;11.27;;
36653;SDS011;22650;49.350;20.898;2022-11-15T16:30:20;26.75;;;12.82;;
36653;SDS011;22650;49.350;20.898;2022-11-15T16:32:58;24.73;;;10.77;;
36653;SDS011;22650;49.350;20.898;2022-11-15T16:35:31;23.25;;;12.70;;
36653;SDS011;22650;49.350;20.898;2022-11-15T16:38:05;28.20;;;14.25;;
36653;SDS011;22650;49.350;20.898;2022-11-15T16:40:40;39.67;;;15.88;;
36653;SDS011;22650;49.350;20.898;2022-11-15T16:43:14;49.88;;;24.42;;
36653;SDS011;22650;49.350;20.898;2022-11-15T16:45:47;61.83;;;29.45;;
36653;SDS011;22650;49.350;20.898;2022-11-15T16:48:23;58.58;;;28.10;;
36653;SDS011;22650;49.350;20.898;2022-11-15T16:50:58;50.45;;;24.00;;
36653;SDS011;22650;49.350;20.898;2022-11-15T16:53:34;48.35;;;24.92;;
36653;SDS011;22650;49.350;20.898;2022-11-15T16:56:12;65.07;;;31.02;;
36653;SDS011;22650;49.350;20.898;2022-11-15T16:58:50;49.05;;;23.70;;
36653;SDS011;22650;49.350;20.898;2022-11-15T17:01:25;48.90;;;22.25;;
36653;SDS011;22650;49.350;20.898;2022-11-15T17:04:01;48.63;;;21.80;;
36653;SDS011;22650;49.350;20.898;2022-11-15T17:06:44;42.30;;;20.85;;
36653;SDS011;22650;49.350;20.898;2022-11-15T17:09:20;41.97;;;20.52;;